Time;durP1;ratioP1;P1;durP2;ratioP2;P2;SDS_P1;SDS_P2;PMS_P1;PMS_P2;Temp;Humidity;BMP_temperature;BMP_pressure;BME280_temperature;BME280_humidity;BME280_pressure;Samples;Min_cycle;Max_cycle;Signal;HPM_P1;HPM_P2
2022/01/07 00:02:12;;;;;;;19.60;10.47;;;3.30;99.90;;;;;;5051770;28;20195;-48
2022/01/07 00:04:39;;;;;;;22.50;10.67;;;3.30;99.90;;;;;;5058324;28;20212;-48
2022/01/07 00:07:08;;;;;;;23.33;10.33;;;3.30;99.90;;;;;;5049421;28;20223;-48
2022/01/07 00:09:36;;;;;;;23.63;10.50;;;3.30;99.90;;;;;;5070642;28;20667;-48
2022/01/07 00:12:03;;;;;;;23.30;11.03;;;3.30;99.90;;;;;;5045838;28;20215;-48
2022/01/07 00:14:30;;;;;;;21.23;10.30;;;3.30;99.90;;;;;;5054829;28;20227;-49
2022/01/07 00:16:58;;;;;;;22.93;10.47;;;3.20;99.90;;;;;;5017124;28;20227;-48
2022/01/07 00:19:25;;;;;;;22.40;11.17;;;3.30;99.90;;;;;;5050029;28;20209;-48
2022/01/07 00:21:52;;;;;;;19.00;10.23;;;3.30;99.90;;;;;;5049287;28;20211;-48
2022/01/07 00:24:19;;;;;;;18.13;10.30;;;3.30;99.90;;;;;;5053192;28;20238;-48
2022/01/07 00:26:46;;;;;;;16.60;10.30;;;3.30;99.90;;;;;;5063059;28;20243;-48
2022/01/07 00:29:13;;;;;;;20.83;11.20;;;3.40;99.90;;;;;;5050811;28;20218;-48
2022/01/07 00:31:39;;;;;;;18.53;10.43;;;3.30;99.90;;;;;;5042741;28;20219;-48
2022/01/07 00:34:08;;;;;;;23.17;11.00;;;3.40;99.90;;;;;;5051989;28;20973;-48
2022/01/07 00:36:35;;;;;;;21.40;10.63;;;3.30;99.90;;;;;;5054615;28;20232;-48
2022/01/07 00:39:02;;;;;;;27.30;10.60;;;3.40;99.90;;;;;;5050489;28;20214;-48
2022/01/07 00:41:28;;;;;;;23.17;10.40;;;3.30;99.90;;;;;;5048914;28;20679;-48
2022/01/07 00:43:56;;;;;;;24.93;10.77;;;3.30;99.90;;;;;;5046034;28;22135;-48
2022/01/07 00:46:23;;;;;;;22.40;10.20;;;3.30;99.90;;;;;;5044997;28;20225;-46
2022/01/07 00:48:49;;;;;;;26.97;10.90;;;3.30;99.90;;;;;;5068902;28;20690;-45
2022/01/07 00:51:18;;;;;;;21.47;11.27;;;3.30;99.90;;;;;;5053852;28;20203;-45
2022/01/07 00:53:45;;;;;;;23.07;9.77;;;3.30;99.90;;;;;;5051638;28;20223;-46
2022/01/07 00:56:13;;;;;;;23.83;10.83;;;3.30;99.90;;;;;;5068201;28;20224;-45
2022/01/07 00:58:39;;;;;;;26.23;10.43;;;3.30;99.90;;;;;;5049994;28;21459;-45
2022/01/07 01:01:06;;;;;;;17.63;9.70;;;3.30;99.90;;;;;;5049223;28;20654;-46
2022/01/07 01:03:33;;;;;;;23.20;9.97;;;3.30;99.90;;;;;;5058498;28;20218;-46
2022/01/07 01:06:00;;;;;;;31.20;9.80;;;3.30;99.90;;;;;;5050656;28;20353;-45
2022/01/07 01:08:29;;;;;;;20.43;9.87;;;3.30;99.90;;;;;;5051260;28;20201;-46
2022/01/07 01:10:56;;;;;;;21.17;10.13;;;3.30;99.90;;;;;;5053110;28;20222;-45
2022/01/07 01:13:23;;;;;;;20.00;9.10;;;3.40;99.90;;;;;;5056454;28;20197;-46
2022/01/07 01:15:51;;;;;;;22.17;9.47;;;3.40;99.90;;;;;;5029942;28;20874;-45
2022/01/07 01:18:18;;;;;;;19.60;10.03;;;3.40;99.90;;;;;;5040654;28;20210;-46
2022/01/07 01:20:45;;;;;;;21.53;9.30;;;3.40;99.90;;;;;;5058961;28;20225;-45
2022/01/07 01:23:12;;;;;;;21.07;9.03;;;3.40;99.90;;;;;;5054488;28;21133;-45
2022/01/07 01:25:40;;;;;;;18.53;9.10;;;3.40;99.90;;;;;;5055756;28;20212;-46
2022/01/07 01:28:07;;;;;;;19.90;8.70;;;3.40;99.90;;;;;;5064812;28;20987;-46
2022/01/07 01:30:35;;;;;;;22.40;9.23;;;3.40;99.90;;;;;;5051091;28;20211;-45
2022/01/07 01:33:02;;;;;;;22.10;9.37;;;3.40;99.90;;;;;;5043996;28;20216;-45
2022/01/07 01:35:29;;;;;;;19.17;8.70;;;3.40;99.90;;;;;;5060313;28;20231;-46
2022/01/07 01:37:56;;;;;;;15.47;8.90;;;3.40;99.90;;;;;;5052563;28;21951;-45
2022/01/07 01:40:23;;;;;;;18.40;8.83;;;3.40;99.90;;;;;;5058170;28;20210;-45
2022/01/07 01:42:53;;;;;;;20.63;8.93;;;3.30;99.90;;;;;;5069750;28;20221;-45
2022/01/07 01:45:21;;;;;;;19.43;8.13;;;3.30;99.90;;;;;;5050065;28;20215;-47
2022/01/07 01:47:49;;;;;;;17.93;7.63;;;3.40;99.90;;;;;;5060711;28;20216;-45
2022/01/07 01:50:16;;;;;;;18.43;8.70;;;3.30;99.90;;;;;;5043456;28;20298;-46
2022/01/07 01:52:49;;;;;;;15.00;8.43;;;3.40;99.90;;;;;;5051779;28;20203;-46
2022/01/07 01:55:18;;;;;;;15.37;7.70;;;3.30;99.90;;;;;;5048651;28;20204;-46
2022/01/07 01:57:45;;;;;;;18.80;7.40;;;3.30;99.90;;;;;;5062175;28;20228;-46
2022/01/07 02:00:13;;;;;;;19.33;7.67;;;3.30;99.90;;;;;;5047816;28;20214;-46
2022/01/07 02:02:41;;;;;;;18.83;7.83;;;3.30;99.90;;;;;;5062706;28;20199;-45
2022/01/07 02:05:09;;;;;;;13.53;6.67;;;3.40;99.90;;;;;;5042888;28;20211;-45
2022/01/07 02:07:38;;;;;;;20.53;6.97;;;3.50;99.90;;;;;;5044754;28;20232;-45
2022/01/07 02:10:05;;;;;;;16.53;7.00;;;3.50;99.90;;;;;;5061404;28;20196;-45
2022/01/07 02:12:32;;;;;;;14.40;6.70;;;3.50;99.90;;;;;;5051581;28;20213;-45
2022/01/07 02:14:59;;;;;;;13.47;6.43;;;3.50;99.90;;;;;;5064242;28;21219;-45
2022/01/07 02:17:28;;;;;;;15.93;6.43;;;3.50;99.90;;;;;;5050861;28;20236;-45
2022/01/07 02:19:56;;;;;;;13.57;6.63;;;3.50;99.90;;;;;;5057800;28;20219;-45
2022/01/07 02:22:24;;;;;;;15.73;6.47;;;3.60;99.90;;;;;;5047423;28;20208;-46
2022/01/07 02:24:52;;;;;;;14.67;6.53;;;3.60;99.90;;;;;;5068272;28;20318;-46
2022/01/07 02:27:19;;;;;;;14.03;6.90;;;3.60;99.90;;;;;;5047475;28;20221;-45
2022/01/07 02:29:49;;;;;;;13.47;6.67;;;3.50;99.90;;;;;;5059407;28;20196;-46
2022/01/07 02:32:17;;;;;;;14.20;5.80;;;3.50;99.90;;;;;;5060503;28;20231;-45
2022/01/07 02:34:44;;;;;;;12.37;5.90;;;3.50;99.90;;;;;;5047460;28;20216;-46
2022/01/07 02:37:13;;;;;;;12.43;5.70;;;3.60;99.90;;;;;;5060309;28;20225;-45
2022/01/07 02:39:41;;;;;;;8.33;5.27;;;3.50;99.90;;;;;;5048848;28;20205;-46
2022/01/07 02:42:08;;;;;;;13.47;5.23;;;3.60;99.90;;;;;;5056296;28;20219;-46
2022/01/07 02:44:35;;;;;;;13.43;5.53;;;3.50;99.90;;;;;;5058524;28;20204;-45
2022/01/07 02:47:02;;;;;;;11.87;4.97;;;3.50;99.90;;;;;;5054763;28;20215;-46
2022/01/07 02:49:29;;;;;;;9.87;5.37;;;3.50;99.90;;;;;;5052541;28;20211;-45
2022/01/07 02:51:55;;;;;;;13.03;6.07;;;3.50;99.90;;;;;;5059945;28;20355;-45
2022/01/07 02:54:24;;;;;;;11.40;5.63;;;3.50;99.90;;;;;;5055131;28;20318;-46
2022/01/07 02:56:51;;;;;;;11.60;6.00;;;3.50;99.90;;;;;;5050134;28;20242;-45
2022/01/07 02:59:18;;;;;;;12.23;5.23;;;3.40;99.90;;;;;;5056789;28;20221;-46
2022/01/07 03:01:44;;;;;;;9.60;5.00;;;3.50;99.90;;;;;;5057524;28;20204;-45
2022/01/07 03:04:11;;;;;;;8.80;4.97;;;3.40;99.90;;;;;;5058856;28;20606;-45
2022/01/07 03:06:38;;;;;;;11.87;4.90;;;3.40;99.90;;;;;;5049815;28;20216;-45
2022/01/07 03:09:06;;;;;;;12.50;5.73;;;3.40;99.90;;;;;;5051496;28;20245;-46
2022/01/07 03:11:36;;;;;;;11.17;4.97;;;3.40;99.90;;;;;;5054721;28;20208;-46
2022/01/07 03:14:04;;;;;;;12.83;4.70;;;3.40;99.90;;;;;;5063732;28;20235;-45
2022/01/07 03:16:31;;;;;;;15.40;5.17;;;3.30;99.90;;;;;;5061213;28;20233;-45
2022/01/07 03:18:58;;;;;;;11.30;4.87;;;3.30;99.90;;;;;;5053954;28;20661;-45
2022/01/07 03:21:25;;;;;;;10.57;4.97;;;3.30;99.90;;;;;;5050646;28;20227;-45
2022/01/07 03:23:52;;;;;;;11.87;5.40;;;3.30;99.90;;;;;;5051133;28;21268;-46
2022/01/07 03:26:19;;;;;;;12.07;5.30;;;3.20;99.90;;;;;;5047637;28;20254;-45
2022/01/07 03:28:47;;;;;;;11.37;5.80;;;3.20;99.90;;;;;;5051416;28;20230;-45
2022/01/07 03:31:15;;;;;;;12.80;5.87;;;3.10;99.90;;;;;;5043620;28;20213;-46
2022/01/07 03:33:42;;;;;;;12.50;5.53;;;3.10;99.90;;;;;;5024590;28;20202;-48
2022/01/07 03:36:09;;;;;;;16.50;5.47;;;3.10;99.90;;;;;;5041201;28;20705;-49
2022/01/07 03:38:36;;;;;;;9.90;5.50;;;3.10;99.90;;;;;;5062631;28;20196;-48
2022/01/07 03:41:03;;;;;;;12.40;5.80;;;3.10;99.90;;;;;;5044873;28;20204;-48
2022/01/07 03:43:30;;;;;;;11.10;5.90;;;3.10;99.90;;;;;;5056316;28;20221;-48
2022/01/07 03:45:58;;;;;;;12.10;6.50;;;3.10;99.90;;;;;;5060096;28;20772;-49
2022/01/07 03:48:25;;;;;;;10.73;6.10;;;3.00;99.90;;;;;;5069649;28;20206;-49
2022/01/07 03:50:52;;;;;;;12.67;5.80;;;3.00;99.90;;;;;;5039961;28;20211;-48
2022/01/07 03:53:19;;;;;;;10.23;5.37;;;3.00;99.90;;;;;;5064020;28;20218;-48
2022/01/07 03:55:46;;;;;;;15.33;6.70;;;3.00;99.90;;;;;;5055604;28;20215;-47
2022/01/07 03:58:12;;;;;;;12.33;6.13;;;2.90;99.90;;;;;;5039301;28;20230;-48
2022/01/07 04:00:41;;;;;;;11.33;5.50;;;2.90;99.90;;;;;;5056464;28;20212;-47
2022/01/07 04:03:12;;;;;;;16.03;6.03;;;2.90;99.90;;;;;;5061020;28;20196;-48
2022/01/07 04:05:39;;;;;;;13.87;5.90;;;2.90;99.90;;;;;;5054628;28;20203;-47
2022/01/07 04:08:07;;;;;;;11.27;6.13;;;2.90;99.90;;;;;;5051816;28;20204;-48
2022/01/07 04:10:34;;;;;;;11.70;5.57;;;2.90;99.90;;;;;;5068553;28;20223;-47
2022/01/07 04:13:01;;;;;;;11.60;6.10;;;2.90;99.90;;;;;;5046473;28;20560;-49
2022/01/07 04:15:29;;;;;;;11.83;5.53;;;2.80;99.90;;;;;;5048327;28;20221;-48
2022/01/07 04:17:56;;;;;;;11.03;6.10;;;2.90;99.90;;;;;;5067112;28;20233;-48
2022/01/07 04:20:26;;;;;;;23.10;7.60;;;2.80;99.90;;;;;;5062805;28;20260;-48
2022/01/07 04:22:54;;;;;;;12.73;5.90;;;2.90;99.90;;;;;;5033646;28;20215;-48
2022/01/07 04:25:22;;;;;;;12.97;6.37;;;2.90;99.90;;;;;;5066027;28;20202;-47
2022/01/07 04:27:50;;;;;;;8.33;5.20;;;2.90;99.90;;;;;;5059973;28;20222;-48
2022/01/07 04:30:18;;;;;;;13.93;6.40;;;2.90;99.90;;;;;;5047917;28;20897;-48
2022/01/07 04:32:45;;;;;;;16.67;7.30;;;2.90;99.90;;;;;;5060810;28;20211;-48
2022/01/07 04:35:13;;;;;;;13.40;6.50;;;2.90;99.90;;;;;;5066292;28;20876;-48
2022/01/07 04:37:42;;;;;;;13.43;6.93;;;2.90;99.90;;;;;;5051819;28;21240;-48
2022/01/07 04:40:12;;;;;;;15.27;7.20;;;2.90;99.90;;;;;;5056200;28;20208;-48
2022/01/07 04:42:38;;;;;;;14.30;6.87;;;3.00;99.90;;;;;;5068887;28;20196;-47
2022/01/07 04:45:07;;;;;;;13.73;7.23;;;2.90;99.90;;;;;;5038087;28;24230;-48
2022/01/07 04:47:36;;;;;;;22.33;6.63;;;2.90;99.90;;;;;;5067396;28;20231;-48
2022/01/07 04:50:04;;;;;;;13.37;7.20;;;3.00;99.90;;;;;;5064032;28;20206;-48
2022/01/07 04:52:31;;;;;;;16.53;7.57;;;3.00;99.90;;;;;;5073240;28;20210;-48
2022/01/07 04:54:59;;;;;;;12.03;7.50;;;2.90;99.90;;;;;;5031974;28;20220;-48
2022/01/07 04:57:26;;;;;;;13.20;6.93;;;3.00;99.90;;;;;;5069638;28;20227;-48
2022/01/07 04:59:52;;;;;;;12.43;7.20;;;3.00;99.90;;;;;;5052781;28;20296;-48
2022/01/07 05:02:20;;;;;;;11.80;7.33;;;3.00;99.90;;;;;;5047128;28;20208;-48
2022/01/07 05:04:47;;;;;;;11.67;6.97;;;3.00;99.90;;;;;;5061538;28;20222;-48
2022/01/07 05:07:15;;;;;;;9.23;6.77;;;3.00;99.90;;;;;;5065605;28;20211;-48
2022/01/07 05:09:42;;;;;;;15.07;7.17;;;3.00;99.90;;;;;;5052183;28;20210;-48
2022/01/07 05:12:11;;;;;;;13.23;7.27;;;3.00;99.90;;;;;;5063939;28;20213;-48
2022/01/07 05:14:38;;;;;;;12.50;7.70;;;3.00;99.90;;;;;;5051520;28;20211;-48
2022/01/07 05:17:05;;;;;;;14.10;7.90;;;3.00;99.90;;;;;;5048975;28;20531;-48
2022/01/07 05:19:33;;;;;;;10.93;7.27;;;3.00;99.90;;;;;;5047351;28;20214;-48
2022/01/07 05:22:00;;;;;;;12.10;8.23;;;2.90;99.90;;;;;;5067589;28;20205;-48
2022/01/07 05:24:26;;;;;;;11.10;7.83;;;2.90;99.90;;;;;;5056361;28;20219;-48
2022/01/07 05:26:53;;;;;;;10.50;8.10;;;2.90;99.90;;;;;;5038900;28;20241;-48
2022/01/07 05:29:22;;;;;;;12.17;7.70;;;3.00;99.90;;;;;;5067454;28;20210;-48
2022/01/07 05:31:48;;;;;;;10.57;7.13;;;3.00;99.90;;;;;;5028952;28;21400;-48
2022/01/07 05:34:15;;;;;;;16.67;8.57;;;2.90;99.90;;;;;;5048099;28;20218;-48
2022/01/07 05:36:42;;;;;;;14.30;8.50;;;3.00;99.90;;;;;;5042518;28;20281;-48
2022/01/07 05:39:09;;;;;;;14.23;8.40;;;3.00;99.90;;;;;;5063788;28;20317;-48
2022/01/07 05:41:36;;;;;;;16.77;8.33;;;3.00;99.90;;;;;;5039739;28;20221;-48
2022/01/07 05:44:03;;;;;;;10.33;7.97;;;3.00;99.90;;;;;;5066408;28;20191;-48
2022/01/07 05:46:31;;;;;;;12.90;8.30;;;3.00;99.90;;;;;;5055190;28;20234;-48
2022/01/07 05:48:58;;;;;;;14.33;8.07;;;2.90;99.90;;;;;;5044771;28;20845;-48
2022/01/07 05:51:25;;;;;;;10.90;7.90;;;3.00;99.90;;;;;;5057742;28;20213;-48
2022/01/07 05:53:52;;;;;;;16.37;7.97;;;3.00;99.90;;;;;;5045225;28;20209;-48
2022/01/07 05:56:18;;;;;;;11.63;8.07;;;3.10;99.90;;;;;;5046318;28;20233;-48
2022/01/07 05:58:45;;;;;;;15.57;8.93;;;3.00;99.90;;;;;;5063088;28;20201;-48
2022/01/07 06:01:12;;;;;;;13.23;8.13;;;3.10;99.90;;;;;;5055338;28;20213;-48
2022/01/07 06:03:41;;;;;;;11.07;8.40;;;3.10;99.90;;;;;;5056832;28;20206;-48
2022/01/07 06:06:08;;;;;;;11.77;8.17;;;3.10;99.90;;;;;;5060090;28;20699;-48
2022/01/07 06:08:35;;;;;;;10.60;7.63;;;3.10;99.90;;;;;;5065985;28;20207;-48
2022/01/07 06:11:02;;;;;;;12.20;8.83;;;3.10;99.90;;;;;;5039591;28;20747;-42
2022/01/07 06:13:29;;;;;;;16.63;8.83;;;3.10;99.90;;;;;;5062985;28;20216;-43
2022/01/07 06:15:56;;;;;;;11.17;8.27;;;3.10;99.90;;;;;;5068389;28;20226;-42
2022/01/07 06:18:23;;;;;;;12.13;8.33;;;3.10;99.90;;;;;;5059624;28;20222;-43
2022/01/07 06:20:52;;;;;;;13.83;8.73;;;3.10;99.90;;;;;;5043639;28;20210;-43
2022/01/07 06:23:18;;;;;;;13.03;8.40;;;3.20;99.90;;;;;;5067959;28;20208;-43
2022/01/07 06:25:48;;;;;;;12.73;8.53;;;3.20;99.90;;;;;;5031141;28;20777;-44
2022/01/07 06:28:16;;;;;;;15.03;8.93;;;3.20;99.90;;;;;;5066886;28;20211;-42
2022/01/07 06:30:42;;;;;;;12.87;8.20;;;3.20;99.90;;;;;;5070896;28;20215;-43
2022/01/07 06:33:09;;;;;;;13.27;9.40;;;3.10;99.90;;;;;;5050548;28;20203;-43
2022/01/07 06:35:36;;;;;;;10.73;8.17;;;3.10;99.90;;;;;;5062896;28;20200;-43
2022/01/07 06:38:04;;;;;;;12.43;7.67;;;3.10;99.90;;;;;;5046209;28;20232;-43
2022/01/07 06:40:32;;;;;;;15.17;7.83;;;3.20;99.90;;;;;;5042788;28;20211;-43
2022/01/07 06:42:59;;;;;;;11.57;8.53;;;3.20;99.90;;;;;;5040920;28;20202;-43
2022/01/07 06:45:26;;;;;;;11.47;8.17;;;3.20;99.90;;;;;;5059109;28;20215;-43
2022/01/07 06:47:53;;;;;;;12.20;8.30;;;3.20;99.90;;;;;;5062867;28;20225;-43
2022/01/07 06:50:20;;;;;;;9.93;8.03;;;3.20;99.90;;;;;;5054851;28;20207;-43
2022/01/07 06:52:46;;;;;;;11.03;7.97;;;3.10;99.90;;;;;;5043021;28;20208;-43
2022/01/07 06:55:15;;;;;;;10.67;8.17;;;3.20;99.90;;;;;;5056584;28;20204;-43
2022/01/07 06:57:42;;;;;;;12.43;8.43;;;3.10;99.90;;;;;;5052289;28;20736;-43
2022/01/07 07:00:10;;;;;;;11.07;8.33;;;3.10;99.90;;;;;;5059160;28;20210;-43
2022/01/07 07:02:37;;;;;;;10.97;8.43;;;3.10;99.90;;;;;;5064944;28;20207;-43
2022/01/07 07:05:04;;;;;;;9.37;7.40;;;3.10;99.90;;;;;;5051505;28;20209;-43
2022/01/07 07:07:31;;;;;;;13.93;8.53;;;3.20;99.90;;;;;;5047648;28;20317;-43
2022/01/07 07:09:58;;;;;;;10.03;8.03;;;3.10;99.90;;;;;;5062640;28;20227;-43
2022/01/07 07:12:27;;;;;;;12.10;8.30;;;3.10;99.90;;;;;;5067597;28;20215;-42
2022/01/07 07:14:53;;;;;;;10.73;8.07;;;3.20;99.90;;;;;;5055543;28;20207;-42
2022/01/07 07:17:20;;;;;;;13.10;8.03;;;3.20;99.90;;;;;;5059276;28;20228;-42
2022/01/07 07:19:48;;;;;;;11.53;8.30;;;3.10;99.90;;;;;;5059544;28;20661;-43
2022/01/07 07:22:15;;;;;;;12.50;8.30;;;3.10;99.90;;;;;;5044159;28;20217;-43
2022/01/07 07:24:42;;;;;;;9.10;7.70;;;3.10;99.90;;;;;;5064556;28;20215;-42
2022/01/07 07:27:09;;;;;;;9.67;7.97;;;3.10;99.90;;;;;;5059741;28;20244;-42
2022/01/07 07:29:37;;;;;;;14.27;9.20;;;3.10;99.90;;;;;;5049692;28;21504;-42
2022/01/07 07:32:08;;;;;;;9.70;7.47;;;3.20;99.90;;;;;;5055894;28;20204;-43
2022/01/07 07:34:57;;;;;;;9.67;8.30;;;3.30;99.90;;;;;;5070146;28;20203;-43
2022/01/07 07:37:24;;;;;;;10.97;8.40;;;3.20;99.90;;;;;;5064340;28;20227;-42
2022/01/07 07:39:51;;;;;;;10.17;7.60;;;3.20;99.90;;;;;;5052150;28;20213;-43
2022/01/07 07:42:18;;;;;;;9.63;8.07;;;3.20;99.90;;;;;;5057273;28;20768;-43
2022/01/07 07:44:46;;;;;;;9.83;8.07;;;3.20;99.90;;;;;;5055711;28;20579;-43
2022/01/07 07:47:14;;;;;;;11.43;8.43;;;3.20;99.90;;;;;;5049979;28;20231;-43
2022/01/07 07:49:41;;;;;;;13.20;9.30;;;3.20;99.90;;;;;;5062679;28;20298;-42
2022/01/07 07:52:08;;;;;;;11.70;8.90;;;3.30;99.90;;;;;;5052931;28;20210;-43
2022/01/07 07:54:35;;;;;;;10.33;7.60;;;3.20;99.90;;;;;;5054621;28;20215;-43
2022/01/07 07:57:02;;;;;;;10.03;7.93;;;3.30;99.90;;;;;;5059077;28;20369;-46
2022/01/07 07:59:29;;;;;;;11.97;7.87;;;3.30;99.90;;;;;;5069821;28;20291;-42
2022/01/07 08:01:57;;;;;;;9.87;7.83;;;3.20;99.90;;;;;;5038702;28;20208;-43
2022/01/07 08:04:24;;;;;;;10.13;8.00;;;3.20;99.90;;;;;;5058049;28;20204;-43
2022/01/07 08:06:51;;;;;;;9.27;7.80;;;3.30;99.90;;;;;;5044625;28;20235;-43
2022/01/07 08:09:18;;;;;;;9.33;8.17;;;3.30;99.90;;;;;;5051039;28;20200;-42
2022/01/07 08:11:51;;;;;;;10.50;8.97;;;3.30;99.90;;;;;;5037949;28;20820;-48
2022/01/07 08:17:19;;;;;;;8.73;7.40;;;3.30;99.90;;;;;;5030135;28;20228;-48
2022/01/07 08:19:46;;;;;;;11.43;7.80;;;3.30;99.90;;;;;;5033650;28;20224;-47
2022/01/07 08:22:13;;;;;;;9.53;7.67;;;3.30;99.90;;;;;;5033665;28;21586;-40
2022/01/07 08:24:40;;;;;;;7.63;6.83;;;3.30;99.90;;;;;;5055926;28;20909;-43
2022/01/07 08:27:07;;;;;;;10.77;7.67;;;3.30;99.90;;;;;;5035601;28;20223;-43
2022/01/07 08:29:36;;;;;;;8.83;7.00;;;3.30;99.90;;;;;;5046671;28;20215;-43
2022/01/07 08:34:56;;;;;;;12.27;7.77;;;3.30;99.90;;;;;;5037682;28;20272;-43
2022/01/07 08:37:25;;;;;;;9.40;7.30;;;3.30;99.90;;;;;;5056573;28;20226;-42
2022/01/07 08:39:53;;;;;;;11.30;7.70;;;3.40;99.90;;;;;;5048230;28;20205;-43
2022/01/07 08:42:21;;;;;;;10.57;7.73;;;3.40;99.90;;;;;;5043029;28;20203;-47
2022/01/07 08:44:51;;;;;;;10.50;8.57;;;3.40;99.90;;;;;;5033833;28;20235;-43
2022/01/07 08:47:19;;;;;;;10.47;9.37;;;3.40;99.90;;;;;;5042049;28;20223;-43
2022/01/07 08:49:47;;;;;;;12.60;10.07;;;3.40;99.90;;;;;;5030056;28;20259;-43
2022/01/07 08:52:15;;;;;;;16.37;9.70;;;3.40;99.90;;;;;;5052897;28;20200;-43
2022/01/07 08:54:42;;;;;;;11.97;9.60;;;3.40;99.90;;;;;;5039398;28;20601;-48
2022/01/07 08:57:09;;;;;;;14.87;10.13;;;3.50;99.90;;;;;;5035367;28;20304;-43
2022/01/07 08:59:36;;;;;;;11.40;9.17;;;3.40;99.90;;;;;;5049154;28;20702;-44
2022/01/07 09:02:04;;;;;;;14.27;10.67;;;3.40;99.90;;;;;;5049382;28;20208;-43
2022/01/07 09:04:31;;;;;;;17.53;10.67;;;3.50;99.90;;;;;;5028161;28;22030;-43
2022/01/07 09:06:58;;;;;;;15.33;10.50;;;3.50;99.90;;;;;;5043880;28;20313;-43
2022/01/07 09:09:26;;;;;;;10.50;9.23;;;3.50;99.90;;;;;;5030732;28;20715;-43
2022/01/07 09:11:53;;;;;;;12.00;8.40;;;3.50;99.90;;;;;;5058492;28;20595;-43
2022/01/07 09:14:20;;;;;;;13.53;8.67;;;3.50;99.90;;;;;;5032601;28;20904;-43
2022/01/07 09:16:47;;;;;;;12.33;8.70;;;3.50;99.90;;;;;;5051845;28;20322;-43
2022/01/07 09:19:14;;;;;;;13.97;8.80;;;3.50;99.90;;;;;;5028951;28;20669;-43
2022/01/07 09:21:41;;;;;;;11.43;9.13;;;3.50;99.90;;;;;;5057546;28;20221;-43
2022/01/07 09:24:08;;;;;;;11.93;9.70;;;3.50;99.90;;;;;;5060219;28;20203;-43
2022/01/07 09:26:36;;;;;;;15.67;9.63;;;3.50;99.90;;;;;;5047265;28;20697;-43
2022/01/07 09:29:03;;;;;;;9.73;8.70;;;3.50;99.90;;;;;;5047143;28;20197;-43
2022/01/07 09:31:30;;;;;;;11.90;8.77;;;3.60;99.90;;;;;;5053616;28;20200;-48
2022/01/07 09:33:57;;;;;;;17.27;9.43;;;3.60;99.90;;;;;;5042419;28;20714;-48
2022/01/07 09:36:24;;;;;;;12.50;8.83;;;3.60;99.90;;;;;;5052887;28;20234;-47
2022/01/07 09:38:51;;;;;;;10.90;8.47;;;3.60;99.90;;;;;;5064589;28;20225;-48
2022/01/07 09:41:18;;;;;;;13.93;10.53;;;3.60;99.90;;;;;;5050122;28;20207;-48
2022/01/07 09:43:46;;;;;;;12.73;9.57;;;3.60;99.90;;;;;;5049412;28;20912;-48
2022/01/07 09:46:15;;;;;;;19.70;10.13;;;3.60;99.90;;;;;;5062054;28;20237;-48
2022/01/07 09:48:42;;;;;;;14.17;10.30;;;3.60;99.90;;;;;;5044470;28;20667;-48
2022/01/07 09:51:10;;;;;;;13.33;8.70;;;3.60;99.90;;;;;;5057823;28;20206;-48
2022/01/07 09:53:37;;;;;;;11.47;9.33;;;3.70;99.90;;;;;;5052487;28;20227;-48
2022/01/07 09:56:04;;;;;;;12.37;9.00;;;3.70;99.90;;;;;;5057344;28;20223;-48
2022/01/07 09:58:33;;;;;;;12.03;8.43;;;3.70;99.90;;;;;;5033160;28;20227;-48
2022/01/07 10:01:05;;;;;;;14.83;8.23;;;3.70;99.90;;;;;;5018396;28;20235;-48
2022/01/07 10:03:38;;;;;;;12.27;8.87;;;3.80;99.90;;;;;;5054293;28;20226;-48
2022/01/07 10:06:20;;;;;;;11.83;7.80;;;3.80;99.90;;;;;;5036811;28;20228;-48
2022/01/07 10:08:59;;;;;;;11.57;7.80;;;3.80;99.90;;;;;;5058272;28;20212;-48
2022/01/07 10:11:26;;;;;;;12.60;8.37;;;3.80;99.90;;;;;;5063518;28;20272;-48
2022/01/07 10:14:17;;;;;;;11.70;7.93;;;3.80;99.90;;;;;;5025180;28;20874;-48
2022/01/07 10:16:54;;;;;;;12.93;7.90;;;3.80;99.90;;;;;;5045170;28;20220;-48
2022/01/07 10:19:35;;;;;;;14.37;8.77;;;3.80;99.90;;;;;;5034440;28;20288;-47
2022/01/07 10:22:05;;;;;;;11.27;8.20;;;3.90;99.90;;;;;;5030192;28;20207;-48
2022/01/07 10:24:32;;;;;;;14.30;8.53;;;3.90;99.90;;;;;;5064943;28;20207;-48
2022/01/07 10:27:15;;;;;;;13.93;8.93;;;3.90;99.90;;;;;;5045209;28;20231;-43
2022/01/07 10:29:45;;;;;;;15.57;9.43;;;4.00;99.90;;;;;;5039476;28;20277;-43
2022/01/07 10:32:29;;;;;;;19.70;8.80;;;3.90;99.90;;;;;;5063361;28;20669;-43
2022/01/07 10:35:11;;;;;;;14.33;9.97;;;3.90;99.90;;;;;;5059335;28;20208;-43
2022/01/07 10:37:46;;;;;;;13.63;9.33;;;4.00;99.90;;;;;;5039944;28;20244;-48
2022/01/07 10:40:38;;;;;;;14.07;9.90;;;4.00;99.90;;;;;;5057899;28;20211;-48
2022/01/07 10:43:17;;;;;;;20.93;10.73;;;4.00;99.90;;;;;;5056553;28;20683;-48
2022/01/07 10:45:46;;;;;;;20.00;12.77;;;4.00;99.90;;;;;;5050593;28;20651;-48
2022/01/07 10:48:15;;;;;;;16.40;11.40;;;4.10;99.90;;;;;;5050828;28;20218;-40
2022/01/07 10:50:45;;;;;;;20.33;11.00;;;4.10;99.90;;;;;;5027380;28;20212;-48
2022/01/07 10:53:21;;;;;;;15.33;10.87;;;4.10;99.90;;;;;;5044191;28;20265;-44
2022/01/07 10:56:11;;;;;;;17.50;10.07;;;4.10;99.90;;;;;;5051892;28;20215;-43
2022/01/07 10:59:00;;;;;;;13.03;9.20;;;4.20;99.90;;;;;;5052726;28;20216;-43
2022/01/07 11:01:34;;;;;;;11.70;8.60;;;4.20;99.90;;;;;;5042995;28;20223;-43
2022/01/07 11:04:05;;;;;;;12.93;9.07;;;4.20;99.90;;;;;;5025102;28;20231;-40
2022/01/07 11:06:32;;;;;;;13.27;9.77;;;4.20;99.90;;;;;;5018862;28;20239;-39
2022/01/07 11:09:00;;;;;;;19.10;9.40;;;4.30;99.90;;;;;;5050671;28;20196;-40
2022/01/07 11:11:29;;;;;;;19.20;10.40;;;4.30;99.90;;;;;;5055815;28;20215;-48
2022/01/07 11:14:04;;;;;;;19.20;9.97;;;4.30;99.90;;;;;;5045024;28;20210;-47
2022/01/07 11:16:31;;;;;;;17.87;10.43;;;4.30;99.90;;;;;;5046713;28;20233;-48
2022/01/07 11:18:58;;;;;;;19.27;10.67;;;4.30;99.90;;;;;;5048714;28;22056;-48
2022/01/07 11:21:27;;;;;;;18.57;11.03;;;4.40;99.90;;;;;;5055740;28;20211;-43
2022/01/07 11:23:54;;;;;;;14.30;9.30;;;4.40;99.90;;;;;;5035228;28;20232;-44
2022/01/07 11:26:23;;;;;;;14.60;9.80;;;4.40;99.90;;;;;;5051930;28;20227;-43
2022/01/07 11:28:58;;;;;;;17.27;10.67;;;4.40;99.90;;;;;;5030629;28;20215;-48
2022/01/07 11:31:26;;;;;;;16.40;10.63;;;4.50;99.90;;;;;;5001734;28;20204;-42
2022/01/07 11:34:26;;;;;;;15.70;10.37;;;4.50;99.90;;;;;;5029884;28;20238;-43
2022/01/07 11:36:55;;;;;;;17.40;10.30;;;4.50;99.90;;;;;;4977767;28;20227;-40
2022/01/07 11:39:23;;;;;;;19.17;10.40;;;4.50;99.90;;;;;;5049887;28;20224;-39
2022/01/07 11:41:53;;;;;;;20.47;11.07;;;4.60;99.90;;;;;;5044697;28;20214;-39
2022/01/07 11:44:27;;;;;;;14.27;10.60;;;4.50;99.90;;;;;;5034660;28;21025;-42
2022/01/07 11:47:24;;;;;;;24.87;12.23;;;4.60;99.90;;;;;;5043857;28;20231;-43
2022/01/07 11:50:05;;;;;;;19.07;10.67;;;4.60;99.90;;;;;;5040070;28;20315;-43
2022/01/07 11:52:37;;;;;;;19.30;9.50;;;4.60;99.90;;;;;;5013184;28;20220;-41
2022/01/07 11:55:30;;;;;;;15.73;9.60;;;4.60;99.90;;;;;;5051302;28;20208;-43
2022/01/07 11:58:01;;;;;;;11.37;9.23;;;4.70;99.90;;;;;;5062746;28;20326;-43
2022/01/07 12:00:52;;;;;;;20.40;8.97;;;4.70;99.90;;;;;;5033122;28;20251;-44
2022/01/07 12:03:34;;;;;;;13.33;9.03;;;4.70;99.90;;;;;;5053470;28;20954;-41
2022/01/07 12:06:01;;;;;;;16.27;9.43;;;4.80;99.90;;;;;;5047708;28;20854;-45
2022/01/07 12:08:40;;;;;;;14.83;10.50;;;4.90;99.90;;;;;;5027136;28;20213;-43
2022/01/07 12:11:08;;;;;;;17.67;11.87;;;4.80;99.90;;;;;;5049944;28;20321;-43
2022/01/07 12:13:37;;;;;;;20.40;10.67;;;4.80;99.90;;;;;;5029525;28;20828;-43
2022/01/07 12:16:06;;;;;;;18.00;10.13;;;4.90;99.90;;;;;;5043320;28;21009;-43
2022/01/07 12:18:33;;;;;;;18.67;11.30;;;4.90;99.90;;;;;;5027010;28;24273;-43
2022/01/07 12:21:00;;;;;;;18.50;11.97;;;4.90;99.90;;;;;;5039693;28;20203;-44
2022/01/07 12:23:28;;;;;;;21.27;10.80;;;4.90;99.90;;;;;;5041345;28;20235;-43
2022/01/07 12:25:57;;;;;;;17.93;10.30;;;4.90;99.90;;;;;;5019550;28;20243;-41
2022/01/07 12:28:24;;;;;;;16.50;9.47;;;4.90;99.90;;;;;;5054492;28;20924;-43
2022/01/07 12:30:52;;;;;;;13.23;8.47;;;4.90;99.90;;;;;;5037422;28;20206;-42
2022/01/07 12:33:19;;;;;;;13.47;8.20;;;4.80;99.90;;;;;;5020423;28;20218;-42
2022/01/07 12:35:46;;;;;;;15.60;8.87;;;4.90;99.90;;;;;;5050107;28;20216;-42
2022/01/07 12:38:16;;;;;;;17.87;8.07;;;4.90;99.90;;;;;;5051661;28;20204;-48
2022/01/07 12:41:01;;;;;;;18.90;10.03;;;4.90;99.90;;;;;;5043441;28;20228;-42
2022/01/07 12:43:35;;;;;;;21.13;10.13;;;4.90;99.90;;;;;;5053674;28;20314;-42
2022/01/07 12:46:04;;;;;;;14.00;9.97;;;4.90;99.90;;;;;;5059326;28;20716;-42
2022/01/07 12:48:37;;;;;;;17.33;9.60;;;5.00;99.90;;;;;;5031180;28;20208;-42
2022/01/07 12:51:06;;;;;;;14.57;9.27;;;5.00;99.90;;;;;;5043276;28;20215;-42
2022/01/07 12:53:33;;;;;;;12.03;8.53;;;5.00;99.90;;;;;;5051008;28;20583;-43
2022/01/07 12:56:23;;;;;;;11.00;7.57;;;5.00;99.90;;;;;;5024479;28;20231;-43
2022/01/07 12:58:50;;;;;;;10.53;6.40;;;5.00;99.90;;;;;;5055717;28;20215;-43
2022/01/07 13:01:28;;;;;;;8.57;5.60;;;4.90;99.90;;;;;;5055141;28;20223;-43